Аэропорт: Гродно. Гродно

ICAO: UMMG

METAR:
2021-01-20 04:00:00
UMMG 200400Z 13004G07MPS 4800 -SN BR OVC026 M11/M13 Q1013 NOSIG
METAR:
Информация по данной станции не доступна